Time;durP1;ratioP1;P1;durP2;ratioP2;P2;SDS_P1;SDS_P2;PMS_P1;PMS_P2;Temp;Humidity;BMP_temperature;BMP_pressure;BME280_temperature;BME280_humidity;BME280_pressure;Samples;Min_cycle;Max_cycle;Signal;HPM_P1;HPM_P2
2023/09/17 00:00:41;;;;;;;20.88;17.42;;;14.10;99.90;;;;;;5035721;28;20049;-70
2023/09/17 00:03:07;;;;;;;22.27;18.15;;;14.00;99.90;;;;;;5039603;28;20060;-70
2023/09/17 00:05:33;;;;;;;22.55;18.45;;;14.00;99.90;;;;;;5055470;28;20049;-70
2023/09/17 00:07:59;;;;;;;22.95;18.63;;;14.00;99.90;;;;;;5054862;28;20059;-70
2023/09/17 00:10:25;;;;;;;22.08;18.30;;;14.00;99.90;;;;;;5054706;28;20041;-70
2023/09/17 00:12:55;;;;;;;22.48;19.08;;;14.10;99.90;;;;;;5054498;28;20062;-70
2023/09/17 00:15:27;;;;;;;23.95;19.63;;;14.00;99.90;;;;;;5055117;28;20055;-70
2023/09/17 00:17:53;;;;;;;21.80;18.27;;;14.10;99.90;;;;;;5053968;28;20075;-70
2023/09/17 00:20:22;;;;;;;21.67;17.55;;;14.10;99.90;;;;;;5055117;28;20059;-70
2023/09/17 00:22:47;;;;;;;22.23;19.05;;;14.10;99.90;;;;;;5053761;28;20487;-70
2023/09/17 00:25:13;;;;;;;24.85;18.55;;;14.10;99.90;;;;;;5054884;28;20132;-70
2023/09/17 00:27:39;;;;;;;22.83;17.90;;;14.10;99.90;;;;;;5055012;28;20479;-70
2023/09/17 00:30:08;;;;;;;25.75;18.58;;;14.10;99.90;;;;;;5054095;28;20044;-70
2023/09/17 00:32:34;;;;;;;21.23;17.33;;;14.10;99.90;;;;;;5054762;28;20090;-70
2023/09/17 00:35:00;;;;;;;21.55;17.17;;;14.10;99.90;;;;;;5054387;28;20385;-70
2023/09/17 00:37:25;;;;;;;19.48;17.17;;;14.00;99.90;;;;;;5053947;28;20094;-70
2023/09/17 00:39:51;;;;;;;21.23;16.13;;;14.10;99.90;;;;;;5050338;28;20051;-70
2023/09/17 00:42:16;;;;;;;23.02;16.88;;;14.10;99.90;;;;;;5035219;28;20059;-70
2023/09/17 00:44:42;;;;;;;22.00;17.75;;;14.00;99.90;;;;;;5052174;28;20444;-70
2023/09/17 00:47:08;;;;;;;22.60;17.05;;;14.10;99.90;;;;;;5038003;28;20396;-70
2023/09/17 00:49:34;;;;;;;22.00;17.02;;;14.10;99.90;;;;;;5072825;28;20048;-70
2023/09/17 00:52:03;;;;;;;20.15;16.80;;;14.10;99.90;;;;;;5070511;28;20120;-70
2023/09/17 00:54:30;;;;;;;19.15;16.45;;;14.10;99.90;;;;;;5072755;28;20048;-70
2023/09/17 00:56:57;;;;;;;20.67;16.52;;;14.10;99.90;;;;;;5054198;28;20048;-70
2023/09/17 00:59:23;;;;;;;19.33;16.67;;;14.10;99.90;;;;;;5053893;28;20040;-70
2023/09/17 01:01:49;;;;;;;21.65;17.13;;;14.10;99.90;;;;;;5050673;28;20149;-70
2023/09/17 01:04:16;;;;;;;19.98;17.23;;;14.10;99.90;;;;;;5040148;28;20119;-70
2023/09/17 01:06:43;;;;;;;22.67;17.88;;;14.10;99.90;;;;;;5051954;28;20123;-70
2023/09/17 01:09:11;;;;;;;24.73;18.92;;;14.20;99.90;;;;;;5051756;28;20119;-70
2023/09/17 01:11:36;;;;;;;20.98;17.38;;;14.20;99.90;;;;;;5054374;28;20063;-71
2023/09/17 01:14:12;;;;;;;24.13;18.17;;;14.20;99.90;;;;;;5071415;28;20045;-71
2023/09/17 01:16:47;;;;;;;23.07;18.67;;;14.30;99.90;;;;;;5054499;28;20098;-71
2023/09/17 01:19:22;;;;;;;21.35;16.92;;;14.30;99.90;;;;;;5054035;28;20159;-70
2023/09/17 01:22:09;;;;;;;22.83;18.20;;;14.40;99.90;;;;;;5071767;28;20082;-71
2023/09/17 01:24:43;;;;;;;21.85;17.90;;;14.40;99.90;;;;;;5034460;28;20048;-71
2023/09/17 01:27:15;;;;;;;24.63;17.65;;;14.40;99.90;;;;;;5033337;28;20081;-71
2023/09/17 01:29:42;;;;;;;21.70;18.25;;;14.40;99.90;;;;;;5041211;28;20154;-70
2023/09/17 01:32:11;;;;;;;23.15;18.10;;;14.50;99.90;;;;;;5053791;28;20567;-70
2023/09/17 01:34:41;;;;;;;24.88;19.08;;;14.50;99.90;;;;;;5053129;28;20051;-70
2023/09/17 01:37:23;;;;;;;20.92;17.67;;;14.50;99.90;;;;;;5036395;28;20053;-70
2023/09/17 01:40:05;;;;;;;24.95;17.70;;;14.60;99.90;;;;;;5051689;28;20488;-71
2023/09/17 01:42:31;;;;;;;21.40;18.45;;;14.60;99.90;;;;;;5034570;28;20497;-71
2023/09/17 01:44:59;;;;;;;21.15;17.42;;;14.60;99.90;;;;;;5034100;28;20049;-71
2023/09/17 01:47:27;;;;;;;21.80;17.95;;;14.70;99.90;;;;;;5051306;28;20056;-70
2023/09/17 01:49:55;;;;;;;20.85;18.20;;;14.70;99.90;;;;;;5033687;28;20048;-71
2023/09/17 01:52:25;;;;;;;22.38;18.58;;;14.70;99.90;;;;;;5037076;28;20043;-70
2023/09/17 01:54:50;;;;;;;25.08;19.08;;;14.80;99.90;;;;;;5053166;28;20102;-70
2023/09/17 01:57:16;;;;;;;23.98;19.67;;;14.80;99.90;;;;;;5053913;28;20053;-71
2023/09/17 01:59:42;;;;;;;23.27;19.83;;;14.90;99.90;;;;;;5053936;28;20044;-71
2023/09/17 02:02:07;;;;;;;24.50;19.50;;;15.00;99.90;;;;;;5053968;28;20118;-71
2023/09/17 02:04:33;;;;;;;26.90;21.17;;;15.00;99.90;;;;;;5057872;28;20041;-71
2023/09/17 02:06:59;;;;;;;24.92;19.98;;;15.10;99.90;;;;;;5057055;28;20518;-71
2023/09/17 02:09:24;;;;;;;25.30;20.42;;;15.10;99.90;;;;;;5053667;28;20041;-71
2023/09/17 02:11:50;;;;;;;27.58;20.83;;;15.20;99.90;;;;;;5053938;28;20575;-71
2023/09/17 02:14:16;;;;;;;26.73;20.95;;;15.20;99.90;;;;;;5037840;28;20144;-71
2023/09/17 02:16:43;;;;;;;27.77;21.63;;;15.20;99.90;;;;;;5036660;28;20084;-71
2023/09/17 02:19:09;;;;;;;26.98;21.52;;;15.30;99.90;;;;;;5073509;28;20043;-71
2023/09/17 02:21:35;;;;;;;26.20;20.77;;;15.30;99.90;;;;;;5057570;28;20052;-71
2023/09/17 02:24:02;;;;;;;27.38;21.15;;;15.40;99.90;;;;;;5074178;28;20055;-71
2023/09/17 02:26:28;;;;;;;26.08;20.20;;;15.40;99.90;;;;;;5075310;28;20040;-71
2023/09/17 02:28:53;;;;;;;26.25;22.48;;;15.40;99.90;;;;;;5053304;28;20086;-71
2023/09/17 02:31:19;;;;;;;27.00;22.50;;;15.50;99.90;;;;;;5073346;28;20055;-71
2023/09/17 02:33:45;;;;;;;27.70;22.30;;;15.50;99.90;;;;;;5053330;28;20045;-71
2023/09/17 02:36:13;;;;;;;26.52;21.42;;;15.50;99.90;;;;;;5070165;28;20044;-71
2023/09/17 02:38:41;;;;;;;28.17;21.92;;;15.60;99.90;;;;;;5052499;28;20103;-71
2023/09/17 02:41:07;;;;;;;27.85;21.77;;;15.60;99.90;;;;;;5053611;28;20063;-71
2023/09/17 02:43:33;;;;;;;28.38;22.20;;;15.60;99.90;;;;;;5056186;28;20037;-71
2023/09/17 02:45:59;;;;;;;32.67;24.70;;;15.60;99.90;;;;;;5056809;28;20079;-71
2023/09/17 02:48:24;;;;;;;28.42;24.35;;;15.70;99.90;;;;;;5074808;28;20484;-71
2023/09/17 02:50:50;;;;;;;29.67;23.90;;;15.70;99.90;;;;;;5055099;28;20559;-71
2023/09/17 02:53:15;;;;;;;35.95;25.08;;;15.70;99.90;;;;;;5056902;28;20460;-71
2023/09/17 02:55:41;;;;;;;28.52;24.27;;;15.80;99.90;;;;;;5053240;28;20045;-71
2023/09/17 02:58:07;;;;;;;28.80;23.25;;;15.80;99.90;;;;;;5044133;28;20052;-71
2023/09/17 03:00:33;;;;;;;27.48;23.35;;;15.80;99.90;;;;;;5056904;28;20052;-71
2023/09/17 03:02:59;;;;;;;28.25;23.17;;;15.80;99.90;;;;;;5056197;28;20076;-71
2023/09/17 03:05:24;;;;;;;29.73;22.83;;;15.80;99.90;;;;;;5054889;28;20440;-71
2023/09/17 03:07:50;;;;;;;28.20;22.05;;;15.80;99.90;;;;;;5052542;28;20395;-71
2023/09/17 03:10:18;;;;;;;27.02;22.67;;;15.90;99.90;;;;;;5036616;28;20507;-71
2023/09/17 03:12:50;;;;;;;27.30;22.25;;;15.90;99.90;;;;;;5036176;28;20052;-71
2023/09/17 03:15:16;;;;;;;30.38;23.48;;;15.90;99.90;;;;;;5041898;28;20036;-71
2023/09/17 03:17:42;;;;;;;26.35;22.83;;;15.90;99.90;;;;;;5056326;28;20565;-71
2023/09/17 03:20:16;;;;;;;25.48;21.70;;;15.90;99.90;;;;;;5073432;28;20049;-71
2023/09/17 03:22:43;;;;;;;28.90;22.50;;;15.90;99.90;;;;;;5074170;28;20373;-71
2023/09/17 03:25:09;;;;;;;24.77;21.77;;;15.90;99.90;;;;;;5055347;28;20150;-70
2023/09/17 03:27:34;;;;;;;26.55;21.23;;;15.90;99.90;;;;;;5055811;28;20158;-71
2023/09/17 03:30:04;;;;;;;25.50;21.73;;;15.90;99.90;;;;;;5055975;28;20539;-71
2023/09/17 03:32:33;;;;;;;27.48;22.38;;;15.90;99.90;;;;;;5056275;28;20049;-71
2023/09/17 03:34:59;;;;;;;25.15;22.30;;;15.80;99.90;;;;;;5073412;28;20077;-71
2023/09/17 03:37:25;;;;;;;26.00;21.67;;;15.80;99.90;;;;;;5073707;28;20040;-71
2023/09/17 03:40:10;;;;;;;26.25;22.33;;;15.80;99.90;;;;;;5052443;28;20053;-71
2023/09/17 03:42:37;;;;;;;26.02;20.92;;;15.80;99.90;;;;;;5055902;28;20129;-71
2023/09/17 03:45:05;;;;;;;27.33;22.27;;;15.80;99.90;;;;;;5072625;28;20040;-71
2023/09/17 03:47:34;;;;;;;25.27;21.48;;;15.80;99.90;;;;;;5055181;28;20044;-71
2023/09/17 03:50:00;;;;;;;27.27;22.65;;;15.80;99.90;;;;;;5073217;28;20593;-71
2023/09/17 03:52:29;;;;;;;29.83;22.88;;;15.80;99.90;;;;;;5073781;28;20039;-71
2023/09/17 03:54:55;;;;;;;26.83;22.55;;;15.80;99.90;;;;;;5072463;28;20086;-71
2023/09/17 03:57:21;;;;;;;27.08;22.25;;;15.80;99.90;;;;;;5055410;28;20045;-71
2023/09/17 03:59:47;;;;;;;28.00;22.83;;;15.80;99.90;;;;;;5054928;28;20118;-71
2023/09/17 04:02:13;;;;;;;28.40;22.50;;;15.80;99.90;;;;;;5054947;28;20086;-71
2023/09/17 04:04:42;;;;;;;26.30;22.60;;;15.80;99.90;;;;;;5055322;28;20225;-71
2023/09/17 04:07:07;;;;;;;27.25;23.00;;;15.80;99.90;;;;;;5055172;28;20063;-71
2023/09/17 04:09:33;;;;;;;28.05;22.80;;;15.90;99.90;;;;;;5054591;28;20424;-71
2023/09/17 04:12:06;;;;;;;28.50;22.75;;;15.90;99.90;;;;;;5072766;28;20045;-71
2023/09/17 04:14:32;;;;;;;29.13;23.42;;;15.90;99.90;;;;;;5054130;28;20077;-71
2023/09/17 04:17:02;;;;;;;27.85;22.80;;;15.90;99.90;;;;;;5050175;28;20052;-70
2023/09/17 04:19:32;;;;;;;29.45;23.35;;;16.00;99.90;;;;;;5035454;28;20120;-71
2023/09/17 04:21:58;;;;;;;29.35;23.88;;;15.90;99.90;;;;;;5051901;28;20140;-71
2023/09/17 04:24:25;;;;;;;26.85;22.45;;;16.00;99.90;;;;;;5065759;28;20044;-71
2023/09/17 04:26:52;;;;;;;27.98;24.10;;;16.00;99.90;;;;;;5054662;28;20123;-71
2023/09/17 04:29:19;;;;;;;28.48;23.73;;;16.00;99.90;;;;;;5054407;28;20044;-71
2023/09/17 04:31:46;;;;;;;27.60;22.48;;;16.10;99.90;;;;;;5055094;28;20064;-71
2023/09/17 04:34:13;;;;;;;29.65;23.90;;;16.10;99.90;;;;;;5051456;28;20049;-71
2023/09/17 04:36:38;;;;;;;27.83;22.58;;;16.10;99.90;;;;;;5034339;28;20064;-71
2023/09/17 04:39:04;;;;;;;30.60;23.80;;;16.00;99.90;;;;;;5034393;28;20053;-71
2023/09/17 04:41:30;;;;;;;25.88;22.83;;;16.10;99.90;;;;;;5034986;28;20044;-71
2023/09/17 04:43:55;;;;;;;27.92;22.23;;;16.10;99.90;;;;;;5038832;28;20037;-71
2023/09/17 04:46:21;;;;;;;27.40;22.77;;;16.10;99.90;;;;;;5054664;28;20055;-71
2023/09/17 04:48:47;;;;;;;27.92;22.60;;;16.10;99.90;;;;;;5054453;28;20400;-71
2023/09/17 04:51:16;;;;;;;27.45;22.15;;;16.10;99.90;;;;;;5053827;28;20040;-71
2023/09/17 04:53:42;;;;;;;29.35;22.90;;;16.10;99.90;;;;;;5054045;28;20056;-71
2023/09/17 04:56:08;;;;;;;28.67;22.33;;;16.20;99.90;;;;;;5050634;28;20071;-71
2023/09/17 04:58:34;;;;;;;28.75;22.35;;;16.10;99.90;;;;;;5051932;28;20041;-71
2023/09/17 05:00:59;;;;;;;28.13;22.30;;;16.20;99.90;;;;;;5034281;28;20076;-71
2023/09/17 05:03:25;;;;;;;27.48;22.80;;;16.20;99.90;;;;;;5052331;28;20072;-71
2023/09/17 05:05:51;;;;;;;30.55;22.75;;;16.20;99.90;;;;;;5046837;28;20055;-71
2023/09/17 05:08:18;;;;;;;27.75;22.58;;;16.20;99.90;;;;;;5054526;28;20041;-71
2023/09/17 05:10:44;;;;;;;29.35;22.83;;;16.20;99.90;;;;;;5054728;28;20055;-71
2023/09/17 05:13:09;;;;;;;26.83;21.90;;;16.20;99.90;;;;;;5071330;28;20056;-71
2023/09/17 05:15:36;;;;;;;30.20;23.23;;;16.20;99.90;;;;;;5051843;28;20388;-71
2023/09/17 05:18:09;;;;;;;30.77;23.00;;;16.20;99.90;;;;;;5048972;28;20049;-71
2023/09/17 05:20:35;;;;;;;28.08;22.15;;;16.20;99.90;;;;;;5034576;28;20528;-71
2023/09/17 05:23:01;;;;;;;28.98;22.92;;;16.20;99.90;;;;;;5033930;28;20049;-71
2023/09/17 05:25:27;;;;;;;28.05;23.27;;;16.30;99.90;;;;;;5060014;28;20056;-71
2023/09/17 05:27:52;;;;;;;28.25;22.67;;;16.30;99.90;;;;;;5053341;28;20072;-71
2023/09/17 05:30:18;;;;;;;30.98;22.77;;;16.30;99.90;;;;;;5054250;28;20467;-71
2023/09/17 05:32:44;;;;;;;27.45;21.83;;;16.30;99.90;;;;;;5071331;28;20120;-71
2023/09/17 05:35:09;;;;;;;28.92;23.00;;;16.30;99.90;;;;;;5050524;28;20456;-71
2023/09/17 05:37:35;;;;;;;28.98;23.23;;;16.30;99.90;;;;;;5036531;28;20072;-71
2023/09/17 05:40:01;;;;;;;29.58;24.05;;;16.30;99.90;;;;;;5053746;28;20072;-71
2023/09/17 05:42:30;;;;;;;31.23;24.30;;;16.40;99.90;;;;;;5038051;28;20088;-71
2023/09/17 05:44:56;;;;;;;34.38;24.55;;;16.40;99.90;;;;;;5059570;28;20045;-71
2023/09/17 05:47:22;;;;;;;32.20;25.25;;;16.40;99.90;;;;;;5056738;28;20043;-71
2023/09/17 05:49:48;;;;;;;34.28;25.42;;;16.40;99.90;;;;;;5053479;28;20055;-70
2023/09/17 05:52:13;;;;;;;33.90;26.92;;;16.40;99.90;;;;;;5057373;28;20148;-70
2023/09/17 05:54:39;;;;;;;31.05;25.75;;;16.40;99.90;;;;;;5073918;28;20076;-70
2023/09/17 05:57:05;;;;;;;33.90;26.83;;;16.40;99.90;;;;;;5075006;28;20113;-70
2023/09/17 05:59:30;;;;;;;35.13;26.70;;;16.40;99.90;;;;;;5074850;28;20119;-70
2023/09/17 06:01:57;;;;;;;34.40;26.80;;;16.40;99.90;;;;;;5052004;28;20433;-71
2023/09/17 06:04:22;;;;;;;33.38;27.80;;;16.40;99.90;;;;;;5041183;28;20090;-71
2023/09/17 06:06:48;;;;;;;37.53;29.40;;;16.40;99.90;;;;;;5056672;28;20032;-71
2023/09/17 06:09:16;;;;;;;36.42;28.05;;;16.50;99.90;;;;;;5073859;28;20044;-71
2023/09/17 06:11:42;;;;;;;31.95;27.42;;;16.50;99.90;;;;;;5056571;28;20127;-71
2023/09/17 06:14:08;;;;;;;35.15;27.42;;;16.50;99.90;;;;;;5074185;28;20123;-71
2023/09/17 06:16:34;;;;;;;31.02;25.88;;;16.60;99.90;;;;;;5070381;28;20178;-70
2023/09/17 06:18:59;;;;;;;34.90;26.80;;;16.60;99.90;;;;;;5056217;28;20055;-71
2023/09/17 06:21:25;;;;;;;34.97;27.42;;;16.70;99.90;;;;;;5055771;28;20045;-71
2023/09/17 06:23:51;;;;;;;31.48;25.40;;;16.70;99.90;;;;;;5056264;28;20041;-71
2023/09/17 06:26:16;;;;;;;31.67;25.55;;;16.70;99.90;;;;;;5056456;28;20126;-71
2023/09/17 06:28:42;;;;;;;29.33;25.38;;;16.70;99.90;;;;;;5055857;28;20086;-71
2023/09/17 06:31:08;;;;;;;30.67;24.85;;;16.80;99.90;;;;;;5055055;28;20106;-70
2023/09/17 06:33:35;;;;;;;29.63;23.02;;;16.90;99.90;;;;;;5055887;28;20068;-71
2023/09/17 06:36:03;;;;;;;30.15;24.27;;;16.90;99.90;;;;;;5073040;28;20488;-71
2023/09/17 06:38:29;;;;;;;28.00;23.98;;;17.00;99.90;;;;;;5052520;28;20123;-71
2023/09/17 06:40:55;;;;;;;29.85;24.38;;;17.00;99.90;;;;;;5035492;28;20124;-71
2023/09/17 06:43:21;;;;;;;30.02;23.33;;;17.00;99.90;;;;;;5033373;28;20496;-71
2023/09/17 06:45:46;;;;;;;27.98;23.70;;;17.00;99.90;;;;;;5035636;28;20437;-71
2023/09/17 06:48:12;;;;;;;29.40;23.42;;;17.10;99.90;;;;;;5031998;28;20041;-70
2023/09/17 06:50:38;;;;;;;27.85;22.38;;;17.10;99.90;;;;;;5051836;28;20090;-71
2023/09/17 06:53:04;;;;;;;29.85;23.58;;;17.20;99.90;;;;;;5053166;28;20044;-71
2023/09/17 06:55:30;;;;;;;26.65;22.85;;;17.20;99.90;;;;;;5053516;28;20037;-71
2023/09/17 06:57:55;;;;;;;28.77;22.98;;;17.30;99.90;;;;;;5032438;28;20056;-72
2023/09/17 07:00:21;;;;;;;27.30;23.02;;;17.30;99.90;;;;;;5053319;28;20086;-72
2023/09/17 07:02:46;;;;;;;28.27;22.70;;;17.30;99.90;;;;;;5035840;28;20106;-72
2023/09/17 07:05:13;;;;;;;26.50;23.20;;;17.30;99.90;;;;;;5053045;28;20503;-70
2023/09/17 07:07:39;;;;;;;27.95;22.55;;;17.30;99.90;;;;;;5035914;28;20050;-71
2023/09/17 07:10:05;;;;;;;27.13;22.05;;;17.40;99.90;;;;;;5034560;28;20048;-71
2023/09/17 07:12:37;;;;;;;25.98;22.73;;;17.40;99.90;;;;;;5049234;28;20044;-72
2023/09/17 07:15:10;;;;;;;25.92;22.13;;;17.40;99.90;;;;;;5034644;28;20045;-71
2023/09/17 07:17:36;;;;;;;27.05;22.40;;;17.40;99.90;;;;;;5033759;28;20049;-71
2023/09/17 07:20:04;;;;;;;27.48;22.75;;;17.50;99.90;;;;;;5034060;28;20041;-71
2023/09/17 07:22:30;;;;;;;25.73;20.95;;;17.40;99.90;;;;;;5034590;28;20128;-71
2023/09/17 07:25:04;;;;;;;27.13;22.85;;;17.40;99.90;;;;;;5051970;28;20105;-71
2023/09/17 07:27:30;;;;;;;29.05;22.35;;;17.50;99.90;;;;;;5035259;28;20377;-71
2023/09/17 07:29:56;;;;;;;27.30;22.60;;;17.50;99.90;;;;;;5035444;28;20056;-71
2023/09/17 07:32:31;;;;;;;31.63;24.08;;;17.50;99.90;;;;;;5034857;28;20500;-71
2023/09/17 07:35:01;;;;;;;29.98;23.98;;;17.50;99.90;;;;;;5035555;28;20144;-71
2023/09/17 07:37:27;;;;;;;31.13;23.85;;;17.50;99.90;;;;;;5034759;28;20045;-71
2023/09/17 07:40:00;;;;;;;27.13;22.33;;;17.50;99.90;;;;;;5043494;28;20052;-71
2023/09/17 07:42:25;;;;;;;29.23;22.83;;;17.50;99.90;;;;;;5054691;28;20109;-71
2023/09/17 07:44:51;;;;;;;26.25;21.92;;;17.50;99.90;;;;;;5065858;28;20041;-71
2023/09/17 07:47:17;;;;;;;30.33;22.85;;;17.50;99.90;;;;;;5048881;28;20442;-72
2023/09/17 07:49:43;;;;;;;29.75;22.77;;;17.50;99.90;;;;;;5054723;28;20033;-71
2023/09/17 07:52:08;;;;;;;26.60;23.13;;;17.50;99.90;;;;;;5072727;28;20044;-71
2023/09/17 07:54:39;;;;;;;28.92;21.95;;;17.50;99.90;;;;;;5054009;28;20090;-73
2023/09/17 07:57:10;;;;;;;27.73;22.80;;;17.50;99.90;;;;;;5053433;28;20048;-71
2023/09/17 07:59:38;;;;;;;27.35;22.88;;;17.50;99.90;;;;;;5054857;28;20049;-72
2023/09/17 08:02:04;;;;;;;30.38;22.63;;;17.60;99.90;;;;;;5054093;28;20153;-72
2023/09/17 08:04:30;;;;;;;26.92;21.73;;;17.60;99.90;;;;;;5054835;28;20167;-71
2023/09/17 08:06:57;;;;;;;29.08;22.70;;;17.70;99.90;;;;;;5053303;28;20052;-71
2023/09/17 08:09:23;;;;;;;26.05;22.40;;;17.70;99.90;;;;;;5045715;28;20045;-71
2023/09/17 08:11:49;;;;;;;26.90;21.88;;;17.70;99.90;;;;;;5051157;28;20083;-72
2023/09/17 08:14:15;;;;;;;25.52;20.80;;;17.70;99.90;;;;;;5053694;28;20048;-71
2023/09/17 08:16:41;;;;;;;26.33;20.05;;;17.70;99.90;;;;;;5054170;28;20045;-71
2023/09/17 08:19:07;;;;;;;23.70;20.05;;;17.70;99.90;;;;;;5053892;28;20045;-72
2023/09/17 08:21:33;;;;;;;24.25;20.65;;;17.80;99.90;;;;;;5050284;28;20053;-71
2023/09/17 08:24:02;;;;;;;23.08;19.60;;;17.80;99.90;;;;;;5035317;28;20090;-71
2023/09/17 08:26:28;;;;;;;25.98;20.63;;;17.80;99.90;;;;;;5054195;28;20048;-71
2023/09/17 08:29:00;;;;;;;25.60;20.30;;;17.70;99.90;;;;;;5071529;28;20119;-70
2023/09/17 08:31:26;;;;;;;24.42;19.58;;;17.70;99.90;;;;;;5053744;28;20093;-71
2023/09/17 08:33:54;;;;;;;23.92;18.67;;;17.70;99.90;;;;;;5054148;28;20052;-71
2023/09/17 08:36:23;;;;;;;26.75;20.25;;;17.80;99.90;;;;;;5070862;28;20077;-70
2023/09/17 08:38:50;;;;;;;23.58;19.08;;;17.80;99.90;;;;;;5053653;28;20120;-70
2023/09/17 08:41:19;;;;;;;22.63;19.58;;;17.80;99.90;;;;;;5053467;28;20052;-71
2023/09/17 08:43:50;;;;;;;22.80;19.63;;;17.80;99.90;;;;;;5053013;28;20044;-71
2023/09/17 08:46:22;;;;;;;23.83;19.50;;;17.80;99.90;;;;;;5053826;28;20443;-70
2023/09/17 08:48:50;;;;;;;25.50;21.23;;;17.80;99.90;;;;;;5053642;28;20036;-73
2023/09/17 08:51:18;;;;;;;27.25;20.92;;;17.80;99.90;;;;;;5051675;28;20643;-74
2023/09/17 08:54:22;;;;;;;23.50;20.33;;;17.90;99.90;;;;;;5050939;28;20051;-76
2023/09/17 08:56:49;;;;;;;25.85;20.27;;;17.90;99.90;;;;;;5041369;28;20052;-73
2023/09/17 08:59:34;;;;;;;22.33;19.40;;;17.90;99.90;;;;;;5071560;28;20044;-74
2023/09/17 09:02:03;;;;;;;25.23;20.17;;;17.90;99.90;;;;;;5053933;28;20058;-76
2023/09/17 09:04:30;;;;;;;25.40;19.92;;;17.90;99.90;;;;;;5073245;28;20063;-78
2023/09/17 09:06:56;;;;;;;25.25;19.63;;;17.90;99.90;;;;;;5053942;28;20052;-73
2023/09/17 09:09:23;;;;;;;23.27;20.42;;;17.90;99.90;;;;;;5054247;28;20055;-74
2023/09/17 09:11:49;;;;;;;23.70;20.35;;;17.80;99.90;;;;;;5048739;28;20047;-73
2023/09/17 09:14:15;;;;;;;26.88;20.23;;;17.80;99.90;;;;;;5052961;28;20090;-74
2023/09/17 09:16:41;;;;;;;24.15;19.33;;;17.80;99.90;;;;;;5054292;28;20052;-73
2023/09/17 09:19:07;;;;;;;23.33;19.52;;;17.80;99.90;;;;;;5071048;28;20048;-75
2023/09/17 09:21:33;;;;;;;23.00;19.80;;;17.80;99.90;;;;;;5054315;28;20041;-78
2023/09/17 09:23:59;;;;;;;24.25;19.85;;;17.80;99.90;;;;;;5053833;28;20506;-71
2023/09/17 09:26:51;;;;;;;22.75;18.88;;;17.80;99.90;;;;;;5050262;28;20376;-71
2023/09/17 09:29:17;;;;;;;23.20;19.02;;;17.80;99.90;;;;;;5038601;28;20049;-72
2023/09/17 09:31:43;;;;;;;23.00;19.00;;;17.80;99.90;;;;;;5045934;28;20045;-71
2023/09/17 09:34:12;;;;;;;21.90;18.58;;;17.80;99.90;;;;;;5034240;28;20455;-72
2023/09/17 09:36:41;;;;;;;26.80;19.83;;;17.70;99.90;;;;;;5057336;28;20437;-73
2023/09/17 09:39:07;;;;;;;23.75;19.83;;;17.70;99.90;;;;;;5052931;28;20445;-73
2023/09/17 09:41:33;;;;;;;23.45;19.35;;;17.70;99.90;;;;;;5053658;28;20152;-71
2023/09/17 09:43:59;;;;;;;23.35;19.73;;;17.70;99.90;;;;;;5053444;28;20068;-74
2023/09/17 09:46:25;;;;;;;24.70;19.92;;;17.80;99.90;;;;;;5049734;28;20083;-74
2023/09/17 09:48:51;;;;;;;22.35;19.25;;;17.70;99.90;;;;;;5040308;28;20441;-73
2023/09/17 09:51:18;;;;;;;25.60;20.60;;;17.80;99.90;;;;;;5071627;28;20056;-71
2023/09/17 09:53:44;;;;;;;27.15;20.92;;;17.70;99.90;;;;;;5049184;28;20480;-70
2023/09/17 09:56:11;;;;;;;23.73;19.40;;;17.70;99.90;;;;;;5063542;28;20479;-72
2023/09/17 09:58:39;;;;;;;30.17;20.90;;;17.70;99.90;;;;;;5055164;28;20369;-77
2023/09/17 10:01:05;;;;;;;24.70;19.80;;;17.70;99.90;;;;;;5053488;28;20044;-74
2023/09/17 10:03:31;;;;;;;24.38;19.85;;;17.70;99.90;;;;;;5050049;28;20063;-73
2023/09/17 10:06:07;;;;;;;25.08;19.20;;;17.60;99.90;;;;;;5045236;28;20052;-73
2023/09/17 10:08:39;;;;;;;21.63;17.92;;;17.60;99.90;;;;;;5032865;28;20056;-74
2023/09/17 10:11:08;;;;;;;16.73;14.38;;;17.60;99.90;;;;;;5033139;28;20041;-74
2023/09/17 10:13:34;;;;;;;17.17;14.23;;;17.50;99.90;;;;;;5032806;28;20048;-74
2023/09/17 10:16:02;;;;;;;16.15;14.15;;;17.50;99.90;;;;;;5047496;28;20055;-75
2023/09/17 10:18:30;;;;;;;18.55;15.07;;;17.50;99.90;;;;;;5053009;28;20105;-75
2023/09/17 10:20:57;;;;;;;16.20;13.80;;;17.40;99.90;;;;;;5045607;28;20443;-75
2023/09/17 10:23:24;;;;;;;19.48;14.88;;;17.50;99.90;;;;;;5043766;28;20044;-75
2023/09/17 10:25:51;;;;;;;18.98;16.02;;;17.40;99.90;;;;;;5054576;28;20048;-74
2023/09/17 10:28:18;;;;;;;18.77;15.05;;;17.40;99.90;;;;;;5051122;28;20059;-72
2023/09/17 10:30:45;;;;;;;19.15;15.07;;;17.40;99.90;;;;;;5072052;28;20049;-72
2023/09/17 10:33:14;;;;;;;17.27;13.80;;;17.40;99.90;;;;;;5051606;28;20121;-72
2023/09/17 10:35:42;;;;;;;18.92;14.65;;;17.40;99.90;;;;;;5055361;28;20072;-72
2023/09/17 10:38:09;;;;;;;20.10;15.63;;;17.40;99.90;;;;;;5051711;28;20408;-73
2023/09/17 10:40:36;;;;;;;18.48;14.75;;;17.50;99.90;;;;;;5047510;28;20080;-72
2023/09/17 10:43:04;;;;;;;16.80;14.95;;;17.50;99.90;;;;;;5050692;28;20036;-73
2023/09/17 10:45:34;;;;;;;17.58;15.02;;;17.50;99.90;;;;;;5054481;28;20044;-72
2023/09/17 10:48:02;;;;;;;16.20;14.50;;;17.60;99.90;;;;;;5043295;28;20074;-72
2023/09/17 10:50:29;;;;;;;14.45;12.85;;;17.60;99.90;;;;;;5072866;28;20553;-84
2023/09/17 10:52:54;;;;;;;15.50;13.23;;;17.60;99.90;;;;;;5057839;28;20060;-90
2023/09/17 10:55:22;;;;;;;13.10;11.27;;;17.50;99.90;;;;;;5054749;28;20105;-73
2023/09/17 10:58:14;;;;;;;13.75;11.57;;;17.50;99.90;;;;;;5072505;28;20048;-72
2023/09/17 11:00:44;;;;;;;15.13;11.63;;;17.50;99.90;;;;;;5069976;28;20064;-72
2023/09/17 11:03:13;;;;;;;13.32;11.80;;;17.50;99.90;;;;;;5054323;28;20058;-74
2023/09/17 11:05:40;;;;;;;15.55;12.43;;;17.50;99.90;;;;;;5054851;28;20119;-75
2023/09/17 11:08:09;;;;;;;12.25;10.80;;;17.50;99.90;;;;;;5055128;28;20133;-75
2023/09/17 11:10:41;;;;;;;13.35;10.25;;;17.60;99.90;;;;;;5054605;28;20048;-73
2023/09/17 11:13:10;;;;;;;12.52;10.05;;;17.60;99.90;;;;;;5054452;28;20408;-73
2023/09/17 11:15:36;;;;;;;11.65;10.20;;;17.60;99.90;;;;;;5055134;28;20399;-71
2023/09/17 11:18:07;;;;;;;12.60;10.85;;;17.60;99.90;;;;;;5072333;28;20044;-70
2023/09/17 11:20:33;;;;;;;14.90;11.15;;;17.70;99.90;;;;;;5054888;28;20063;-73
2023/09/17 11:23:01;;;;;;;15.20;11.63;;;17.70;99.90;;;;;;5055187;28;20041;-79
2023/09/17 11:25:34;;;;;;;16.23;11.70;;;17.80;99.90;;;;;;5054307;28;20526;-75
2023/09/17 11:28:11;;;;;;;15.15;11.63;;;17.80;99.90;;;;;;5054189;28;20056;-72
2023/09/17 11:31:02;;;;;;;15.30;12.27;;;17.90;99.90;;;;;;5073212;28;20041;-76
2023/09/17 11:33:28;;;;;;;13.55;11.27;;;17.90;99.90;;;;;;5054796;28;20036;-73
2023/09/17 11:35:56;;;;;;;13.80;12.10;;;17.90;99.90;;;;;;5053982;28;20055;-72
2023/09/17 11:38:27;;;;;;;14.32;11.90;;;17.90;99.90;;;;;;5053995;28;20055;-74
2023/09/17 11:41:02;;;;;;;15.68;12.20;;;17.90;99.90;;;;;;5053943;28;20131;-72
2023/09/17 11:43:29;;;;;;;14.48;11.77;;;17.90;99.90;;;;;;5053797;28;20133;-76
2023/09/17 11:45:54;;;;;;;13.45;11.85;;;18.00;99.90;;;;;;5053156;28;20043;-75
2023/09/17 11:48:21;;;;;;;14.57;12.20;;;17.90;99.90;;;;;;5055160;28;20406;-76
2023/09/17 11:50:47;;;;;;;14.77;12.38;;;17.90;99.90;;;;;;5052713;28;20048;-76
2023/09/17 11:53:15;;;;;;;14.40;11.68;;;18.00;99.90;;;;;;5045797;28;20438;-76
2023/09/17 11:55:41;;;;;;;15.77;12.38;;;18.00;99.90;;;;;;5071526;28;20083;-77
2023/09/17 11:58:19;;;;;;;13.90;12.23;;;18.10;99.90;;;;;;5054397;28;20472;-73
2023/09/17 12:00:48;;;;;;;15.27;11.93;;;18.10;99.90;;;;;;5072222;28;20048;-74
2023/09/17 12:03:14;;;;;;;15.10;12.70;;;18.30;99.90;;;;;;5070079;28;20036;-75
2023/09/17 12:05:40;;;;;;;14.50;12.75;;;18.50;99.90;;;;;;5048275;28;20449;-74
2023/09/17 12:08:06;;;;;;;15.23;13.63;;;18.70;99.90;;;;;;5052226;28;20123;-75
2023/09/17 12:10:37;;;;;;;17.40;12.88;;;19.00;99.90;;;;;;5047487;28;20044;-75
2023/09/17 12:13:04;;;;;;;15.32;13.18;;;19.50;99.90;;;;;;5052088;28;20056;-74
2023/09/17 12:15:31;;;;;;;14.10;11.20;;;20.10;99.90;;;;;;5051824;28;20084;-74
2023/09/17 12:17:57;;;;;;;13.88;10.13;;;20.90;99.90;;;;;;5050756;28;20097;-75
2023/09/17 12:21:27;;;;;;;11.77;9.27;;;21.20;99.90;;;;;;5050914;28;20040;-75
2023/09/17 12:23:36;;;;;;;11.88;10.02;;;21.20;99.90;;;;;;5041412;28;20055;-78
2023/09/17 12:26:03;;;;;;;10.63;9.52;;;20.90;99.90;;;;;;5069811;28;20048;-77
2023/09/17 12:28:29;;;;;;;12.45;10.05;;;20.80;99.90;;;;;;5050471;28;20044;-76
2023/09/17 12:30:55;;;;;;;12.77;9.55;;;20.80;99.90;;;;;;5069506;28;20099;-74